In Rescue
 
Open Full Screen Window  High Contrast Mode
Wind Gusting 18 knots
11
April 20, 2024 9:57 AM EDT
Weather Information
Wind Direction
  280 °
Wind Speed
  11 kt (13 mph)
Wind Gust
  18 kt (21 mph)
Altimeter
30.00 in
Visibility
10 SM
Temperature
03° C
37° F
Dewpoint
-03° C
27° F
Humidity
65%
Sky Condition
Overcast @ 7,000 ft
Broken @ 5,500 ft
Broken @ 3,000 ft
MVFR

METAR KMGN 201357Z AUTO 28011G18KT 10SM BKN030 BKN055 OVC070 03/M03 A3000 RMK AO2 T00401039

FAA Disclaimer: The data displayed is for advisory purposes only and is not to be used for flight planning or operations.